createdAt,value
2017-09-12T00:02:26.538Z,5.60
2017-09-12T00:04:54.000Z,6.60
2017-09-12T00:07:21.482Z,5.93
2017-09-12T00:09:48.959Z,5.80
2017-09-12T00:12:16.423Z,6.43
2017-09-12T00:14:43.899Z,5.93
2017-09-12T00:17:11.354Z,6.53
2017-09-12T00:19:38.811Z,6.00
2017-09-12T00:22:06.295Z,6.40
2017-09-12T00:24:33.847Z,5.07
2017-09-12T00:27:01.303Z,5.77
2017-09-12T00:29:28.778Z,6.03
2017-09-12T00:31:56.277Z,6.77
2017-09-12T00:34:23.735Z,5.13
2017-09-12T00:36:51.196Z,6.30
2017-09-12T00:39:18.674Z,5.90
2017-09-12T00:41:46.156Z,5.60
2017-09-12T00:44:13.631Z,5.10
2017-09-12T00:46:41.112Z,5.80
2017-09-12T00:49:08.566Z,6.43
2017-09-12T00:51:36.057Z,6.90
2017-09-12T00:54:04.045Z,5.83
2017-09-12T00:56:31.526Z,5.80
2017-09-12T00:58:58.999Z,5.57
2017-09-12T01:01:26.471Z,5.47
2017-09-12T01:03:53.923Z,5.73
2017-09-12T01:06:21.388Z,5.53
2017-09-12T01:08:48.875Z,5.47
2017-09-12T01:11:16.336Z,4.80
2017-09-12T01:13:43.795Z,5.50
2017-09-12T01:16:11.283Z,5.70
2017-09-12T01:18:38.738Z,6.77
2017-09-12T01:21:06.214Z,7.30
2017-09-12T01:23:33.686Z,5.87
2017-09-12T01:26:01.141Z,6.00
2017-09-12T01:28:28.614Z,5.07
2017-09-12T01:30:56.094Z,6.30
2017-09-12T01:33:23.571Z,5.63
2017-09-12T01:35:51.030Z,6.20
2017-09-12T01:38:18.531Z,6.10
2017-09-12T01:40:46.008Z,5.03
2017-09-12T01:43:13.486Z,6.43
2017-09-12T01:45:40.971Z,6.27
2017-09-12T01:48:08.446Z,5.97
2017-09-12T01:50:35.918Z,5.20
2017-09-12T01:53:03.390Z,5.40
2017-09-12T01:55:30.850Z,5.07
2017-09-12T01:57:58.331Z,5.00
2017-09-12T02:00:25.782Z,5.27
2017-09-12T02:02:53.238Z,5.80
2017-09-12T02:05:20.723Z,5.27
2017-09-12T02:07:48.183Z,6.13
2017-09-12T02:10:15.639Z,8.57
2017-09-12T02:12:43.127Z,6.30
2017-09-12T02:15:10.600Z,5.23
2017-09-12T02:17:38.054Z,4.93
2017-09-12T02:20:05.542Z,6.10
2017-09-12T02:22:33.015Z,5.60
2017-09-12T02:25:00.482Z,6.13
2017-09-12T02:27:27.963Z,6.07
2017-09-12T02:29:55.426Z,5.40
2017-09-12T02:32:22.903Z,5.77
2017-09-12T02:34:50.387Z,5.97
2017-09-12T02:37:18.016Z,5.47
2017-09-12T02:39:45.502Z,5.70
2017-09-12T02:42:12.975Z,5.63
2017-09-12T02:44:40.451Z,5.50
2017-09-12T02:47:07.904Z,4.90
2017-09-12T02:49:35.387Z,6.20
2017-09-12T02:52:02.887Z,5.17
2017-09-12T02:54:30.355Z,6.80
2017-09-12T02:56:57.847Z,5.83
2017-09-12T02:59:25.322Z,5.50
2017-09-12T03:01:52.802Z,5.00
2017-09-12T03:04:20.278Z,5.47
2017-09-12T03:06:47.751Z,6.20
2017-09-12T03:09:14.492Z,5.57
2017-09-12T03:11:41.969Z,5.23
2017-09-12T03:14:09.475Z,4.80
2017-09-12T03:16:36.954Z,5.23
2017-09-12T03:19:04.411Z,5.00
2017-09-12T03:21:31.859Z,6.30
2017-09-12T03:23:59.569Z,4.63
2017-09-12T03:26:27.018Z,5.10
2017-09-12T03:28:54.559Z,5.43
2017-09-12T03:31:22.042Z,5.60
2017-09-12T03:33:49.547Z,6.80
2017-09-12T03:36:17.007Z,5.97
2017-09-12T03:38:44.495Z,5.63
2017-09-12T03:41:11.947Z,6.67
2017-09-12T03:43:39.403Z,6.00
2017-09-12T03:46:06.883Z,5.20
2017-09-12T03:48:34.339Z,5.90
2017-09-12T03:51:01.790Z,5.70
2017-09-12T03:53:29.274Z,6.23
2017-09-12T03:55:56.726Z,5.90
2017-09-12T03:58:24.191Z,5.43
2017-09-12T04:00:51.665Z,5.70
2017-09-12T04:03:19.115Z,5.50
2017-09-12T04:05:46.577Z,5.27
2017-09-12T04:08:14.059Z,5.40
2017-09-12T04:10:41.614Z,5.33
2017-09-12T04:13:09.068Z,6.30
2017-09-12T04:15:36.583Z,5.97
2017-09-12T04:18:04.061Z,5.70
2017-09-12T04:20:31.519Z,5.07
2017-09-12T04:22:59.001Z,4.90
2017-09-12T04:25:26.454Z,6.47
2017-09-12T04:27:53.906Z,5.00
2017-09-12T04:30:21.386Z,5.00
2017-09-12T04:32:48.838Z,5.40
2017-09-12T04:35:16.290Z,6.30
2017-09-12T04:37:43.766Z,5.47
2017-09-12T04:40:11.243Z,6.50
2017-09-12T04:42:38.701Z,6.50
2017-09-12T04:45:06.194Z,5.77
2017-09-12T04:47:33.663Z,5.80
2017-09-12T04:50:01.146Z,6.83
2017-09-12T04:52:28.643Z,5.53
2017-09-12T04:54:56.106Z,6.00
2017-09-12T04:57:23.558Z,6.40
2017-09-12T04:59:51.038Z,6.77
2017-09-12T05:02:18.495Z,6.20
2017-09-12T05:04:45.946Z,6.60
2017-09-12T05:07:13.423Z,6.50
2017-09-12T05:09:40.878Z,5.00
2017-09-12T05:12:08.347Z,6.20
2017-09-12T05:14:35.830Z,6.83
2017-09-12T05:17:03.943Z,6.17
2017-09-12T05:19:32.710Z,5.90
2017-09-12T05:22:00.198Z,6.73
2017-09-12T05:24:27.660Z,6.90
2017-09-12T05:26:55.116Z,6.20
2017-09-12T05:29:22.595Z,5.47
2017-09-12T05:31:50.055Z,6.40
2017-09-12T05:34:17.516Z,5.80
2017-09-12T05:36:44.995Z,6.20
2017-09-12T05:39:12.465Z,6.47
2017-09-12T05:41:39.964Z,6.10
2017-09-12T05:44:07.443Z,5.77
2017-09-12T05:46:34.895Z,7.30
2017-09-12T05:49:02.351Z,6.50
2017-09-12T05:51:29.838Z,7.37
2017-09-12T05:53:57.294Z,6.33
2017-09-12T05:56:24.746Z,7.10
2017-09-12T05:58:52.221Z,7.67
2017-09-12T06:01:19.674Z,7.30
2017-09-12T06:03:47.126Z,7.93
2017-09-12T06:06:14.602Z,7.70
2017-09-12T06:08:42.054Z,7.97
2017-09-12T06:11:09.505Z,7.07
2017-09-12T06:13:37.006Z,10.10
2017-09-12T06:16:04.530Z,9.07
2017-09-12T06:18:31.987Z,8.03
2017-09-12T06:20:59.474Z,6.53
2017-09-12T06:23:26.929Z,6.33
2017-09-12T06:25:54.387Z,5.70
2017-09-12T06:28:21.876Z,5.90
2017-09-12T06:30:49.333Z,5.90
2017-09-12T06:33:16.792Z,6.27
2017-09-12T06:35:44.271Z,6.40
2017-09-12T06:38:11.722Z,6.87
2017-09-12T06:40:39.174Z,6.03
2017-09-12T06:43:06.651Z,6.37
2017-09-12T06:45:34.106Z,8.87
2017-09-12T06:48:01.558Z,7.23
2017-09-12T06:50:29.201Z,6.93
2017-09-12T06:52:56.670Z,11.17
2017-09-12T06:55:24.126Z,6.40
2017-09-12T06:57:51.616Z,5.40
2017-09-12T07:00:19.072Z,6.10
2017-09-12T07:02:46.527Z,5.50
2017-09-12T07:05:14.039Z,5.60
2017-09-12T07:07:41.537Z,9.47
2017-09-12T07:10:09.005Z,8.30
2017-09-12T07:12:36.457Z,7.90
2017-09-12T07:15:03.939Z,7.83
2017-09-12T07:17:31.394Z,6.50
2017-09-12T07:19:58.852Z,7.83
2017-09-12T07:22:26.337Z,6.50
2017-09-12T07:24:53.790Z,5.57
2017-09-12T07:27:21.246Z,4.90
2017-09-12T07:29:48.733Z,5.20
2017-09-12T07:32:16.191Z,5.77
2017-09-12T07:34:43.646Z,6.40
2017-09-12T07:37:11.126Z,5.53
2017-09-12T07:39:38.587Z,4.87
2017-09-12T07:42:06.050Z,4.93
2017-09-12T07:44:33.536Z,4.87
2017-09-12T07:47:00.991Z,4.20
2017-09-12T07:49:28.442Z,5.50
2017-09-12T07:51:55.927Z,5.43
2017-09-12T07:54:23.389Z,5.17
2017-09-12T07:56:50.851Z,4.70
2017-09-12T07:59:18.358Z,4.90
2017-09-12T08:01:45.806Z,4.40
2017-09-12T08:04:13.271Z,4.53
2017-09-12T08:06:40.771Z,4.30
2017-09-12T08:09:08.223Z,4.30
2017-09-12T08:11:35.683Z,4.90
2017-09-12T08:14:03.166Z,5.40
2017-09-12T08:16:30.631Z,3.97
2017-09-12T08:18:58.086Z,4.20
2017-09-12T08:21:25.570Z,4.37
2017-09-12T08:23:53.022Z,4.23
2017-09-12T08:26:20.478Z,5.30
2017-09-12T08:28:47.951Z,5.77
2017-09-12T08:31:15.406Z,5.10
2017-09-12T08:33:42.859Z,4.70
2017-09-12T08:36:10.342Z,4.93
2017-09-12T08:38:37.795Z,4.30
2017-09-12T08:41:05.262Z,5.40
2017-09-12T08:43:32.744Z,4.53
2017-09-12T08:46:00.197Z,4.47
2017-09-12T08:48:27.651Z,4.10
2017-09-12T08:50:55.149Z,5.20
2017-09-12T08:53:22.602Z,6.23
2017-09-12T08:55:50.055Z,5.47
2017-09-12T08:58:17.534Z,5.53
2017-09-12T09:00:44.999Z,6.10
2017-09-12T09:03:12.479Z,4.70
2017-09-12T09:05:39.958Z,5.07
2017-09-12T09:08:07.415Z,4.60
2017-09-12T09:10:34.870Z,5.80
2017-09-12T09:13:02.347Z,4.17
2017-09-12T09:15:29.799Z,4.23
2017-09-12T09:17:57.247Z,4.97
2017-09-12T09:20:24.722Z,5.20
2017-09-12T09:22:52.183Z,5.00
2017-09-12T09:25:19.642Z,4.53
2017-09-12T09:27:47.131Z,4.70
2017-09-12T09:30:14.586Z,5.73
2017-09-12T09:32:42.035Z,4.60
2017-09-12T09:35:09.517Z,5.63
2017-09-12T09:37:36.970Z,5.00
2017-09-12T09:40:04.423Z,4.73
2017-09-12T09:42:31.909Z,4.77
2017-09-12T09:44:59.362Z,4.40
2017-09-12T09:47:26.814Z,4.37
2017-09-12T09:49:54.292Z,4.17
2017-09-12T09:52:21.751Z,5.13
2017-09-12T09:54:49.210Z,4.03
2017-09-12T09:57:17.938Z,4.87
2017-09-12T09:59:45.387Z,4.70
2017-09-12T10:02:12.843Z,5.37
2017-09-12T10:04:40.318Z,4.40
2017-09-12T10:07:07.771Z,4.27
2017-09-12T10:09:35.226Z,4.53
2017-09-12T10:12:02.704Z,4.90
2017-09-12T10:14:30.158Z,4.77
2017-09-12T10:16:57.606Z,4.17
2017-09-12T10:19:25.079Z,4.60
2017-09-12T10:21:52.534Z,4.90
2017-09-12T10:24:19.986Z,4.13
2017-09-12T10:26:47.458Z,4.10
2017-09-12T10:29:14.915Z,5.03
2017-09-12T10:31:42.363Z,4.33
2017-09-12T10:34:09.838Z,4.27
2017-09-12T10:36:37.298Z,4.73
2017-09-12T10:39:04.756Z,4.90
2017-09-12T10:41:32.235Z,4.90
2017-09-12T10:43:59.685Z,4.10
2017-09-12T10:46:27.150Z,4.47
2017-09-12T10:48:54.680Z,4.63
2017-09-12T10:51:22.146Z,4.60
2017-09-12T10:53:49.615Z,4.20
2017-09-12T10:56:17.107Z,4.10
2017-09-12T10:58:44.558Z,4.47
2017-09-12T11:01:12.028Z,4.23
2017-09-12T11:03:39.501Z,4.33
2017-09-12T11:06:06.951Z,4.20
2017-09-12T11:08:34.407Z,4.07
2017-09-12T11:11:01.895Z,4.30
2017-09-12T11:13:29.356Z,4.33
2017-09-12T11:15:56.811Z,4.20
2017-09-12T11:18:24.278Z,4.17
2017-09-12T11:20:51.730Z,4.10
2017-09-12T11:23:19.182Z,3.97
2017-09-12T11:25:46.656Z,3.93
2017-09-12T11:28:14.111Z,3.60
2017-09-12T11:30:41.599Z,3.90
2017-09-12T11:33:09.070Z,4.20
2017-09-12T11:35:36.529Z,3.67
2017-09-12T11:38:04.033Z,4.20
2017-09-12T11:40:31.507Z,5.00
2017-09-12T11:42:58.960Z,4.07
2017-09-12T11:45:26.446Z,4.60
2017-09-12T11:47:53.918Z,4.60
2017-09-12T11:50:21.394Z,4.53
2017-09-12T11:52:48.871Z,4.03
2017-09-12T11:55:16.383Z,4.93
2017-09-12T11:57:43.848Z,4.70
2017-09-12T12:00:11.299Z,4.10
2017-09-12T12:02:38.774Z,4.00
2017-09-12T12:05:06.227Z,4.33
2017-09-12T12:07:33.687Z,4.73
2017-09-12T12:10:01.199Z,4.40
2017-09-12T12:12:28.670Z,3.70
2017-09-12T12:14:56.130Z,4.20
2017-09-12T12:17:23.605Z,3.87
2017-09-12T12:19:51.116Z,3.87
2017-09-12T12:22:18.590Z,4.60
2017-09-12T12:24:46.066Z,4.57
2017-09-12T12:27:13.534Z,4.20
2017-09-12T12:29:40.991Z,3.97
2017-09-12T12:32:08.487Z,3.90
2017-09-12T12:34:35.968Z,3.80
2017-09-12T12:37:03.419Z,3.57
2017-09-12T12:39:30.903Z,4.40
2017-09-12T12:41:58.370Z,3.80
2017-09-12T12:44:25.827Z,4.63
2017-09-12T12:46:53.279Z,3.93
2017-09-12T12:49:20.746Z,4.47
2017-09-12T12:51:48.227Z,3.97
2017-09-12T12:54:15.687Z,3.80
2017-09-12T12:56:43.158Z,3.97
2017-09-12T12:59:10.610Z,4.10
2017-09-12T13:01:38.078Z,3.77
2017-09-12T13:04:05.554Z,4.40
2017-09-12T13:06:33.007Z,4.30
2017-09-12T13:09:00.462Z,4.00
2017-09-12T13:11:27.954Z,4.30
2017-09-12T13:13:55.410Z,4.50
2017-09-12T13:16:22.875Z,4.10
2017-09-12T13:18:50.363Z,4.63
2017-09-12T13:21:17.823Z,4.83
2017-09-12T13:23:45.286Z,5.00
2017-09-12T13:26:12.767Z,4.43
2017-09-12T13:28:40.214Z,4.30
2017-09-12T13:31:07.666Z,4.43
2017-09-12T13:33:35.142Z,3.73
2017-09-12T13:36:02.589Z,4.17
2017-09-12T13:38:30.043Z,4.33
2017-09-12T13:40:57.530Z,4.40
2017-09-12T13:43:24.983Z,4.17
2017-09-12T13:45:52.443Z,4.50
2017-09-12T13:48:19.939Z,4.20
2017-09-12T13:50:47.398Z,4.87
2017-09-12T13:53:15.358Z,4.30
2017-09-12T13:55:42.834Z,4.13
2017-09-12T13:58:10.306Z,3.80
2017-09-12T14:00:37.835Z,4.63
2017-09-12T14:03:05.310Z,4.37
2017-09-12T14:05:32.770Z,3.63
2017-09-12T14:08:00.250Z,4.70
2017-09-12T14:10:27.703Z,4.33
2017-09-12T14:12:55.153Z,4.50
2017-09-12T14:15:22.634Z,5.07
2017-09-12T14:17:50.086Z,4.70
2017-09-12T14:20:17.542Z,5.43
2017-09-12T14:22:45.015Z,4.33
2017-09-12T14:25:12.475Z,4.10
2017-09-12T14:27:39.927Z,4.13
2017-09-12T14:30:07.398Z,3.90
2017-09-12T14:32:34.851Z,4.60
2017-09-12T14:35:02.307Z,3.93
2017-09-12T14:37:29.783Z,3.97
2017-09-12T14:39:57.230Z,4.60
2017-09-12T14:42:24.694Z,4.40
2017-09-12T14:44:52.170Z,3.83
2017-09-12T14:47:19.635Z,4.33
2017-09-12T14:49:47.212Z,4.53
2017-09-12T14:52:14.703Z,3.60
2017-09-12T14:54:42.155Z,3.93
2017-09-12T14:57:09.672Z,3.60
2017-09-12T14:59:37.148Z,3.23
2017-09-12T15:02:04.711Z,3.57
2017-09-12T15:04:32.129Z,3.30
2017-09-12T15:06:59.631Z,3.50
2017-09-12T15:09:27.086Z,3.17
2017-09-12T15:11:54.539Z,3.30
2017-09-12T15:14:22.017Z,3.03
2017-09-12T15:16:49.465Z,3.33
2017-09-12T15:19:16.919Z,3.00
2017-09-12T15:21:44.398Z,3.47
2017-09-12T15:24:11.842Z,3.90
2017-09-12T15:26:39.295Z,3.20
2017-09-12T15:29:06.770Z,3.37
2017-09-12T15:31:34.223Z,3.30
2017-09-12T15:34:01.679Z,2.90
2017-09-12T15:36:29.155Z,3.83
2017-09-12T15:38:56.606Z,3.30
2017-09-12T15:41:24.054Z,3.63
2017-09-12T15:43:51.530Z,3.63
2017-09-12T15:46:18.977Z,3.57
2017-09-12T15:48:46.427Z,3.60
2017-09-12T15:51:13.907Z,4.10
2017-09-12T15:53:41.363Z,3.57
2017-09-12T15:56:08.815Z,3.03
2017-09-12T15:58:36.294Z,3.63
2017-09-12T16:01:03.750Z,3.30
2017-09-12T16:03:31.215Z,3.50
2017-09-12T16:05:58.691Z,3.70
2017-09-12T16:08:26.170Z,3.77
2017-09-12T16:10:53.645Z,3.87
2017-09-12T16:13:21.134Z,3.23
2017-09-12T16:15:48.593Z,3.70
2017-09-12T16:18:16.041Z,3.70
2017-09-12T16:20:43.519Z,3.20
2017-09-12T16:23:10.999Z,2.90
2017-09-12T16:25:38.472Z,3.30
2017-09-12T16:28:05.970Z,3.30
2017-09-12T16:30:33.430Z,3.47
2017-09-12T16:33:00.907Z,3.80
2017-09-12T16:35:28.356Z,3.90
2017-09-12T16:37:55.807Z,4.30
2017-09-12T16:40:23.414Z,3.90
2017-09-12T16:42:50.934Z,3.50
2017-09-12T16:45:18.392Z,3.63
2017-09-12T16:47:45.961Z,3.70
2017-09-12T16:50:13.531Z,4.70
2017-09-12T16:52:40.983Z,4.30
2017-09-12T16:55:08.461Z,3.63
2017-09-12T16:57:35.931Z,3.70
2017-09-12T17:00:03.386Z,4.03
2017-09-12T17:02:30.867Z,3.60
2017-09-12T17:04:58.436Z,4.13
2017-09-12T17:07:25.919Z,4.07
2017-09-12T17:09:53.375Z,3.73
2017-09-12T17:12:21.037Z,4.10
2017-09-12T17:14:48.717Z,3.30
2017-09-12T17:17:16.420Z,3.77
2017-09-12T17:19:44.195Z,3.70
2017-09-12T17:22:12.321Z,4.13
2017-09-12T17:24:40.940Z,3.77
2017-09-12T17:27:09.691Z,4.40
2017-09-12T17:29:38.162Z,5.43
2017-09-12T17:32:08.659Z,3.80
2017-09-12T17:34:37.085Z,3.50
2017-09-12T17:37:05.829Z,3.67
2017-09-12T17:39:34.541Z,3.83
2017-09-12T17:42:03.318Z,3.40
2017-09-12T17:44:32.212Z,4.40
2017-09-12T17:47:00.754Z,4.63
2017-09-12T17:49:29.306Z,4.13
2017-09-12T17:51:57.858Z,4.63
2017-09-12T17:54:26.608Z,4.30
2017-09-12T17:56:55.072Z,5.20
2017-09-12T17:59:23.502Z,4.17
2017-09-12T18:01:52.116Z,3.80
2017-09-12T18:04:20.597Z,4.13
2017-09-12T18:06:49.021Z,4.60
2017-09-12T18:09:17.643Z,3.83
2017-09-12T18:11:46.088Z,4.30
2017-09-12T18:14:14.539Z,5.00
2017-09-12T18:16:43.122Z,5.00
2017-09-12T18:19:11.663Z,4.37
2017-09-12T18:21:40.117Z,4.80
2017-09-12T18:24:08.704Z,5.40
2017-09-12T18:26:38.042Z,4.20
2017-09-12T18:29:06.826Z,4.40
2017-09-12T18:31:35.330Z,4.03
2017-09-12T18:34:03.810Z,4.27
2017-09-12T18:36:39.965Z,4.67
2017-09-12T18:39:08.436Z,4.80
2017-09-12T18:41:36.864Z,4.50
2017-09-12T18:44:05.448Z,5.17
2017-09-12T18:46:33.942Z,4.47
2017-09-12T18:49:02.437Z,4.63
2017-09-12T18:51:31.164Z,5.97
2017-09-12T18:54:00.598Z,5.47
2017-09-12T18:56:29.050Z,4.60
2017-09-12T18:58:57.605Z,5.20
2017-09-12T19:01:26.085Z,5.90
2017-09-12T19:03:54.566Z,4.50
2017-09-12T19:06:24.189Z,6.07
2017-09-12T19:08:52.739Z,5.20
2017-09-12T19:11:21.231Z,5.17
2017-09-12T19:13:49.890Z,6.00
2017-09-12T19:16:18.407Z,5.40
2017-09-12T19:18:46.913Z,5.80
2017-09-12T19:21:15.453Z,4.80
2017-09-12T19:23:43.915Z,5.10
2017-09-12T19:26:12.662Z,4.10
2017-09-12T19:28:41.948Z,4.90
2017-09-12T19:31:10.915Z,4.70
2017-09-12T19:33:39.467Z,4.53
2017-09-12T19:36:07.958Z,4.43
2017-09-12T19:38:36.441Z,4.00
2017-09-12T19:41:05.206Z,4.70
2017-09-12T19:43:33.710Z,4.43
2017-09-12T19:46:02.160Z,7.03
2017-09-12T19:48:30.972Z,5.60
2017-09-12T19:50:59.461Z,5.10
2017-09-12T19:53:27.954Z,5.87
2017-09-12T19:55:56.534Z,6.77
2017-09-12T19:58:24.994Z,5.70
2017-09-12T20:00:53.422Z,3.97
2017-09-12T20:03:21.966Z,4.53
2017-09-12T20:05:50.450Z,4.40
2017-09-12T20:08:18.887Z,4.33
2017-09-12T20:10:47.540Z,4.20
2017-09-12T20:13:16.020Z,4.40
2017-09-12T20:15:44.460Z,4.30
2017-09-12T20:18:13.022Z,4.80
2017-09-12T20:20:41.478Z,4.47
2017-09-12T20:23:09.893Z,4.27
2017-09-12T20:25:38.466Z,4.43
2017-09-12T20:28:06.967Z,5.37
2017-09-12T20:30:35.438Z,3.83
2017-09-12T20:33:04.009Z,4.10
2017-09-12T20:35:32.399Z,4.73
2017-09-12T20:38:00.832Z,4.80
2017-09-12T20:40:30.499Z,5.20
2017-09-12T20:42:59.185Z,6.10
2017-09-12T20:45:27.537Z,4.80
2017-09-12T20:47:55.888Z,5.30
2017-09-12T20:50:24.257Z,5.67
2017-09-12T20:52:52.622Z,4.50
2017-09-12T20:55:21.039Z,4.40
2017-09-12T20:57:49.338Z,5.67
2017-09-12T21:00:17.575Z,6.07
2017-09-12T21:02:45.570Z,5.43
2017-09-12T21:05:13.155Z,4.60
2017-09-12T21:07:40.782Z,5.20
2017-09-12T21:10:08.285Z,5.30
2017-09-12T21:12:35.809Z,4.80
2017-09-12T21:15:03.292Z,5.70
2017-09-12T21:17:30.778Z,5.80
2017-09-12T21:19:58.235Z,5.43
2017-09-12T21:22:25.700Z,5.00
2017-09-12T21:24:53.183Z,5.90
2017-09-12T21:27:20.685Z,5.40
2017-09-12T21:29:48.143Z,5.87
2017-09-12T21:32:15.632Z,5.23
2017-09-12T21:34:43.204Z,4.47
2017-09-12T21:37:10.663Z,4.97
2017-09-12T21:39:38.143Z,5.30
2017-09-12T21:42:05.626Z,5.70
2017-09-12T21:44:33.085Z,5.87
2017-09-12T21:47:00.538Z,5.53
2017-09-12T21:49:28.018Z,4.80
2017-09-12T21:51:55.478Z,5.60
2017-09-12T21:54:22.938Z,5.20
2017-09-12T21:56:50.423Z,5.47
2017-09-12T21:59:17.886Z,5.40
2017-09-12T22:01:45.345Z,5.60
2017-09-12T22:04:12.846Z,4.10
2017-09-12T22:06:40.307Z,4.47
2017-09-12T22:09:07.815Z,5.03
2017-09-12T22:11:35.389Z,6.00
2017-09-12T22:14:02.846Z,5.30
2017-09-12T22:16:30.303Z,6.03
2017-09-12T22:18:57.778Z,5.83
2017-09-12T22:21:25.237Z,5.03
2017-09-12T22:23:52.699Z,5.60
2017-09-12T22:26:20.182Z,5.00
2017-09-12T22:28:47.638Z,4.80
2017-09-12T22:31:15.111Z,5.27
2017-09-12T22:33:43.442Z,4.83
2017-09-12T22:36:11.177Z,5.83
2017-09-12T22:38:39.123Z,4.40
2017-09-12T22:41:06.860Z,4.90
2017-09-12T22:43:34.384Z,4.90
2017-09-12T22:46:02.241Z,5.73
2017-09-12T22:48:29.718Z,4.87
2017-09-12T22:50:57.211Z,4.60
2017-09-12T22:53:24.666Z,4.83
2017-09-12T22:55:52.119Z,4.77
2017-09-12T22:58:19.594Z,4.87
2017-09-12T23:00:47.077Z,4.83
2017-09-12T23:03:14.537Z,5.07
2017-09-12T23:05:41.991Z,4.97
2017-09-12T23:08:09.466Z,5.23
2017-09-12T23:10:37.207Z,5.50
2017-09-12T23:13:04.658Z,5.10
2017-09-12T23:15:32.139Z,5.40
2017-09-12T23:17:59.599Z,5.40
2017-09-12T23:20:27.058Z,5.30
2017-09-12T23:22:54.542Z,5.43
2017-09-12T23:25:22.003Z,5.40
2017-09-12T23:27:49.463Z,5.40
2017-09-12T23:30:16.950Z,5.07
2017-09-12T23:32:44.409Z,5.73
2017-09-12T23:35:11.862Z,5.37
2017-09-12T23:37:39.342Z,5.37
2017-09-12T23:40:06.794Z,5.10
2017-09-12T23:42:34.250Z,5.83
2017-09-12T23:45:01.731Z,5.87
2017-09-12T23:47:29.190Z,6.17
2017-09-12T23:49:56.649Z,5.37
2017-09-12T23:52:24.127Z,5.77
2017-09-12T23:54:51.586Z,5.37
2017-09-12T23:57:19.043Z,6.27
2017-09-12T23:59:46.526Z,5.60
